createdAt,value
2018-06-15T00:00:09.368Z,89.00
2018-06-15T00:02:37.752Z,88.90
2018-06-15T00:05:06.237Z,88.90
2018-06-15T00:10:02.627Z,89.00
2018-06-15T00:12:30.984Z,89.00
2018-06-15T00:14:59.323Z,88.90
2018-06-15T00:17:27.692Z,88.90
2018-06-15T00:19:55.991Z,88.80
2018-06-15T00:22:24.363Z,88.80
2018-06-15T00:27:20.725Z,88.90
2018-06-15T00:29:49.094Z,89.10
2018-06-15T00:32:17.424Z,89.20
2018-06-15T00:34:45.750Z,89.30
2018-06-15T00:37:14.072Z,89.30
2018-06-15T00:39:42.480Z,89.40
2018-06-15T00:42:10.848Z,89.50
2018-06-15T00:44:39.134Z,89.50
2018-06-15T00:47:07.519Z,89.60
2018-06-15T00:49:35.896Z,89.50
2018-06-15T00:52:04.207Z,89.50
2018-06-15T00:54:32.564Z,89.40
2018-06-15T00:57:12.077Z,89.30
2018-06-15T00:59:40.595Z,89.40
2018-06-15T01:02:09.037Z,89.30
2018-06-15T01:04:37.493Z,89.20
2018-06-15T01:07:05.857Z,89.20
2018-06-15T01:09:34.214Z,89.20
2018-06-15T01:12:02.528Z,89.30
2018-06-15T01:14:30.879Z,89.30
2018-06-15T01:16:59.324Z,89.30
2018-06-15T01:21:55.812Z,89.50
2018-06-15T01:24:24.116Z,89.50
2018-06-15T01:26:52.468Z,89.60
2018-06-15T01:29:20.813Z,89.60
2018-06-15T01:31:49.128Z,89.60
2018-06-15T01:34:17.475Z,89.60
2018-06-15T01:36:45.865Z,89.60
2018-06-15T01:39:14.259Z,89.60
2018-06-15T01:41:42.608Z,89.40
2018-06-15T01:44:11.014Z,89.50
2018-06-15T01:46:39.344Z,89.50
2018-06-15T01:49:07.721Z,89.70
2018-06-15T01:51:36.027Z,89.80
2018-06-15T01:54:04.360Z,89.80
2018-06-15T01:56:32.670Z,90.00
2018-06-15T01:59:00.987Z,90.10
2018-06-15T02:01:29.394Z,90.10
2018-06-15T02:03:57.799Z,90.10
2018-06-15T02:06:26.163Z,90.20
2018-06-15T02:08:54.537Z,90.20
2018-06-15T02:11:30.074Z,90.20
2018-06-15T02:13:58.333Z,90.20
2018-06-15T02:16:26.605Z,90.20
2018-06-15T02:18:55.277Z,90.30
2018-06-15T02:21:23.554Z,90.30
2018-06-15T02:23:51.894Z,90.40
2018-06-15T02:26:20.244Z,90.30
2018-06-15T02:28:48.513Z,90.30
2018-06-15T02:31:16.812Z,90.40
2018-06-15T02:33:45.072Z,90.40
2018-06-15T02:36:13.356Z,90.40
2018-06-15T02:38:41.636Z,90.50
2018-06-15T02:41:09.977Z,90.50
2018-06-15T02:43:38.265Z,90.50
2018-06-15T02:46:06.909Z,90.60
2018-06-15T02:48:35.172Z,90.70
2018-06-15T02:51:03.439Z,90.70
2018-06-15T02:55:59.764Z,90.80
2018-06-15T02:58:28.054Z,90.80
2018-06-15T03:00:56.408Z,90.90
2018-06-15T03:03:24.757Z,90.90
2018-06-15T03:05:53.002Z,90.90
2018-06-15T03:08:21.280Z,90.90
2018-06-15T03:10:49.521Z,91.00
2018-06-15T03:13:17.873Z,91.00
2018-06-15T03:15:46.146Z,91.00
2018-06-15T03:18:14.701Z,91.10
2018-06-15T03:20:42.956Z,91.00
2018-06-15T03:23:11.197Z,91.10
2018-06-15T03:25:39.512Z,91.20
2018-06-15T03:28:07.788Z,91.10
2018-06-15T03:30:36.034Z,91.10
2018-06-15T03:33:04.325Z,91.20
2018-06-15T03:35:32.576Z,91.20
2018-06-15T03:38:00.853Z,91.20
2018-06-15T03:40:29.145Z,91.20
2018-06-15T03:42:57.408Z,91.20
2018-06-15T03:45:25.674Z,91.20
2018-06-15T03:47:53.909Z,91.60
2018-06-15T03:50:22.547Z,91.40
2018-06-15T03:52:50.825Z,91.40
2018-06-15T03:55:19.089Z,91.40
2018-06-15T03:57:47.365Z,91.50
2018-06-15T04:00:15.724Z,91.60
2018-06-15T04:02:44.055Z,91.60
2018-06-15T04:05:12.365Z,91.60
2018-06-15T04:07:40.646Z,91.60
2018-06-15T04:10:08.921Z,91.70
2018-06-15T04:12:37.251Z,91.80
2018-06-15T04:15:05.500Z,91.80
2018-06-15T04:17:33.781Z,91.80
2018-06-15T04:20:02.024Z,91.80
2018-06-15T04:22:30.268Z,91.90
2018-06-15T04:24:58.552Z,91.90
2018-06-15T04:27:26.948Z,91.90
2018-06-15T04:29:56.021Z,92.00
2018-06-15T04:32:24.373Z,92.00
2018-06-15T04:34:52.736Z,92.00
2018-06-15T04:37:21.238Z,92.00
2018-06-15T04:39:49.429Z,92.10
2018-06-15T04:42:17.724Z,92.20
2018-06-15T04:44:46.000Z,92.20
2018-06-15T04:47:14.496Z,92.30
2018-06-15T04:49:43.689Z,92.30
2018-06-15T04:52:12.298Z,92.30
2018-06-15T04:54:40.616Z,92.30
2018-06-15T04:57:08.929Z,92.30
2018-06-15T04:59:37.179Z,92.40
2018-06-15T05:02:05.433Z,92.50
2018-06-15T05:04:33.754Z,92.50
2018-06-15T05:07:02.072Z,92.50
2018-06-15T05:09:30.317Z,92.50
2018-06-15T05:11:58.564Z,92.50
2018-06-15T05:16:55.008Z,92.50
2018-06-15T05:19:23.307Z,92.50
2018-06-15T05:21:51.568Z,92.40
2018-06-15T05:24:19.852Z,92.50
2018-06-15T05:26:48.105Z,92.50
2018-06-15T05:29:16.400Z,92.50
2018-06-15T05:31:44.661Z,92.40
2018-06-15T05:34:12.993Z,92.30
2018-06-15T05:36:41.268Z,92.20
2018-06-15T05:39:10.654Z,92.00
2018-06-15T05:41:39.051Z,91.90
2018-06-15T05:44:07.441Z,91.90
2018-06-15T05:46:35.741Z,91.80
2018-06-15T05:49:04.264Z,91.70
2018-06-15T05:51:32.641Z,91.70
2018-06-15T05:54:00.926Z,91.70
2018-06-15T05:58:57.144Z,91.50
2018-06-15T06:01:25.409Z,91.30
2018-06-15T06:03:53.734Z,91.20
2018-06-15T06:06:22.092Z,91.00
2018-06-15T06:08:50.364Z,90.60
2018-06-15T06:11:18.628Z,90.50
2018-06-15T06:16:14.996Z,89.50
2018-06-15T06:18:43.408Z,88.40
2018-06-15T06:21:12.094Z,88.00
2018-06-15T06:23:40.356Z,86.30
2018-06-15T06:26:08.612Z,85.60
2018-06-15T06:28:36.897Z,85.30
2018-06-15T06:31:05.268Z,84.90
2018-06-15T06:33:33.550Z,84.60
2018-06-15T06:36:02.171Z,83.70
2018-06-15T06:38:30.639Z,82.20
2018-06-15T06:40:58.951Z,81.20
2018-06-15T06:43:27.240Z,80.80
2018-06-15T06:45:55.552Z,80.60
2018-06-15T06:48:23.841Z,80.40
2018-06-15T06:50:52.095Z,80.70
2018-06-15T06:53:20.372Z,79.80
2018-06-15T06:55:48.668Z,78.40
2018-06-15T07:00:44.916Z,77.90
2018-06-15T07:03:13.168Z,77.40
2018-06-15T07:05:41.429Z,76.90
2018-06-15T07:08:09.765Z,75.90
2018-06-15T07:10:38.000Z,75.30
2018-06-15T07:13:06.265Z,73.40
2018-06-15T07:15:34.520Z,73.40
2018-06-15T07:18:02.787Z,73.20
2018-06-15T07:20:31.039Z,71.90
2018-06-15T07:22:59.419Z,71.00
2018-06-15T07:25:27.676Z,69.40
2018-06-15T07:27:55.910Z,69.50
2018-06-15T07:30:24.220Z,69.70
2018-06-15T07:32:52.459Z,68.90
2018-06-15T07:35:20.765Z,68.30
2018-06-15T07:37:49.039Z,68.70
2018-06-15T07:40:17.280Z,65.80
2018-06-15T07:42:45.600Z,65.30
2018-06-15T07:45:14.015Z,65.00
2018-06-15T07:47:42.473Z,64.90
2018-06-15T07:50:10.737Z,64.20
2018-06-15T07:52:39.020Z,62.60
2018-06-15T07:55:07.324Z,62.20
2018-06-15T07:57:35.636Z,60.80
2018-06-15T08:00:03.909Z,60.90
2018-06-15T08:02:32.170Z,61.00
2018-06-15T08:05:00.512Z,60.80
2018-06-15T08:07:28.825Z,59.80
2018-06-15T08:09:57.052Z,59.40
2018-06-15T08:12:25.324Z,59.60
2018-06-15T08:14:54.787Z,59.30
2018-06-15T08:17:23.145Z,58.50
2018-06-15T08:19:51.420Z,57.50
2018-06-15T08:22:19.801Z,57.20
2018-06-15T08:24:48.097Z,57.10
2018-06-15T08:27:16.392Z,56.30
2018-06-15T08:29:44.660Z,55.70
2018-06-15T08:34:40.869Z,55.90
2018-06-15T08:37:09.131Z,55.30
2018-06-15T08:39:37.389Z,55.20
2018-06-15T08:42:05.819Z,54.70
2018-06-15T08:44:34.048Z,55.00
2018-06-15T08:47:02.325Z,55.20
2018-06-15T08:49:31.626Z,54.70
2018-06-15T08:51:59.858Z,54.80
2018-06-15T08:54:28.144Z,54.30
2018-06-15T08:56:56.417Z,52.70
2018-06-15T08:59:24.687Z,52.00
2018-06-15T09:01:53.046Z,51.60
2018-06-15T09:04:21.297Z,49.70
2018-06-15T09:06:49.572Z,48.20
2018-06-15T09:09:18.469Z,47.70
2018-06-15T09:11:46.758Z,48.10
2018-06-15T09:14:14.964Z,48.00
2018-06-15T09:16:43.268Z,46.40
2018-06-15T09:19:11.737Z,46.10
2018-06-15T09:21:40.108Z,45.50
2018-06-15T09:24:08.606Z,45.10
2018-06-15T09:26:36.870Z,44.80
2018-06-15T09:29:05.105Z,44.40
2018-06-15T09:31:33.377Z,43.90
2018-06-15T09:34:01.653Z,43.90
2018-06-15T09:36:29.908Z,44.00
2018-06-15T09:38:58.231Z,44.30
2018-06-15T09:41:26.442Z,44.10
2018-06-15T09:43:55.156Z,44.40
2018-06-15T09:46:23.498Z,44.50
2018-06-15T09:48:51.796Z,45.30
2018-06-15T09:53:48.206Z,44.40
2018-06-15T09:56:16.437Z,44.60
2018-06-15T10:01:13.149Z,42.70
2018-06-15T10:03:41.505Z,42.40
2018-06-15T10:06:09.876Z,42.50
2018-06-15T10:08:38.269Z,41.60
2018-06-15T10:11:07.281Z,40.60
2018-06-15T10:13:35.572Z,40.50
2018-06-15T10:16:05.142Z,40.60
2018-06-15T10:18:33.725Z,40.70
2018-06-15T10:21:02.641Z,40.90
2018-06-15T10:23:36.656Z,41.00
2018-06-15T10:28:33.200Z,41.10
2018-06-15T10:31:01.462Z,41.20
2018-06-15T10:33:32.044Z,41.50
2018-06-15T10:36:00.529Z,41.50
2018-06-15T10:38:28.861Z,41.10
2018-06-15T10:40:57.077Z,41.00
2018-06-15T10:43:26.261Z,40.20
2018-06-15T10:45:54.864Z,40.20
2018-06-15T10:48:23.444Z,39.70
2018-06-15T10:50:51.720Z,38.90
2018-06-15T10:53:26.541Z,39.50
2018-06-15T10:55:54.928Z,38.10
2018-06-15T10:58:23.204Z,37.30
2018-06-15T11:00:52.872Z,37.00
2018-06-15T11:03:21.265Z,36.50
2018-06-15T11:05:49.757Z,35.60
2018-06-15T11:08:18.757Z,35.50
2018-06-15T11:10:47.536Z,35.00
2018-06-15T11:13:15.812Z,34.90
2018-06-15T11:15:44.216Z,34.70
2018-06-15T11:18:12.488Z,34.70
2018-06-15T11:20:40.813Z,33.50
2018-06-15T11:25:37.058Z,32.30
2018-06-15T11:28:05.467Z,32.10
2018-06-15T11:30:33.853Z,31.10
2018-06-15T11:33:02.228Z,30.10
2018-06-15T11:35:30.783Z,30.60
2018-06-15T11:37:59.033Z,29.50
2018-06-15T11:40:27.276Z,28.80
2018-06-15T11:42:55.624Z,29.20
2018-06-15T11:45:23.892Z,28.30
2018-06-15T11:50:20.090Z,28.20
2018-06-15T11:52:51.003Z,28.40
2018-06-15T11:55:19.257Z,28.80
2018-06-15T11:57:47.484Z,29.00
2018-06-15T12:00:16.372Z,29.10
2018-06-15T12:02:44.795Z,29.10
2018-06-15T12:05:13.277Z,29.60
2018-06-15T12:07:41.758Z,29.60
2018-06-15T12:10:10.089Z,29.60
2018-06-15T12:12:38.415Z,29.70
2018-06-15T12:15:07.640Z,29.60
2018-06-15T12:17:35.989Z,29.50
2018-06-15T12:20:04.298Z,29.10
2018-06-15T12:22:32.604Z,28.80
2018-06-15T12:25:00.877Z,29.10
2018-06-15T12:27:29.195Z,29.50
2018-06-15T12:29:57.405Z,29.40
2018-06-15T12:32:25.698Z,29.10
2018-06-15T12:34:54.687Z,28.80
2018-06-15T12:39:51.468Z,27.50
2018-06-15T12:42:19.712Z,26.90
2018-06-15T12:44:48.137Z,26.20
2018-06-15T12:47:16.441Z,26.10
2018-06-15T12:49:45.079Z,26.20
2018-06-15T12:52:13.344Z,25.70
2018-06-15T12:54:41.601Z,25.00
2018-06-15T12:57:10.077Z,25.10
2018-06-15T12:59:39.153Z,25.60
2018-06-15T13:02:07.355Z,26.10
2018-06-15T13:04:35.950Z,26.30
2018-06-15T13:07:04.224Z,27.30
2018-06-15T13:09:32.663Z,27.30
2018-06-15T13:12:01.041Z,27.80
2018-06-15T13:14:29.412Z,28.50
2018-06-15T13:16:57.812Z,28.80
2018-06-15T13:19:26.128Z,29.10
2018-06-15T13:21:54.458Z,29.50
2018-06-15T13:24:22.768Z,29.50
2018-06-15T13:26:51.484Z,29.70
2018-06-15T13:29:19.757Z,29.10
2018-06-15T13:31:48.045Z,28.30
2018-06-15T13:34:16.284Z,27.60
2018-06-15T13:36:44.580Z,27.60
2018-06-15T13:39:13.789Z,27.30
2018-06-15T13:41:42.088Z,26.70
2018-06-15T13:44:10.520Z,25.70
2018-06-15T13:46:39.036Z,25.40
2018-06-15T13:49:07.340Z,25.00
2018-06-15T13:51:35.641Z,24.70
2018-06-15T13:54:04.008Z,24.40
2018-06-15T13:56:32.277Z,24.30
2018-06-15T13:59:00.592Z,24.60
2018-06-15T14:01:28.941Z,25.00
2018-06-15T14:03:57.262Z,25.50
2018-06-15T14:06:25.626Z,26.20
2018-06-15T14:08:53.973Z,26.70
2018-06-15T14:11:22.206Z,27.10
2018-06-15T14:13:50.557Z,27.70
2018-06-15T14:16:18.881Z,28.50
2018-06-15T14:18:47.485Z,27.70
2018-06-15T14:21:16.121Z,27.70
2018-06-15T14:23:44.393Z,27.60
2018-06-15T14:26:12.843Z,27.10
2018-06-15T14:28:41.135Z,26.60
2018-06-15T14:31:09.435Z,26.60
2018-06-15T14:33:37.759Z,26.70
2018-06-15T14:36:06.049Z,27.00
2018-06-15T14:38:34.290Z,27.00
2018-06-15T14:41:02.702Z,27.20
2018-06-15T14:43:30.932Z,27.50
2018-06-15T14:45:59.399Z,27.40
2018-06-15T14:48:27.744Z,27.20
2018-06-15T14:50:56.037Z,27.40
2018-06-15T14:53:24.299Z,27.80
2018-06-15T14:55:52.669Z,28.20
2018-06-15T14:58:20.956Z,28.70
2018-06-15T15:00:49.226Z,29.10
2018-06-15T15:03:17.660Z,29.20
2018-06-15T15:05:46.269Z,29.70
2018-06-15T15:08:14.527Z,29.40
2018-06-15T15:10:42.763Z,29.60
2018-06-15T15:13:11.124Z,30.00
2018-06-15T15:15:39.417Z,30.40
2018-06-15T15:18:07.709Z,31.10
2018-06-15T15:20:35.984Z,31.30
2018-06-15T15:23:04.325Z,31.60
2018-06-15T15:25:32.757Z,31.90
2018-06-15T15:28:01.048Z,31.80
2018-06-15T15:30:29.349Z,32.00
2018-06-15T15:32:57.693Z,32.40
2018-06-15T15:35:25.955Z,33.00
2018-06-15T15:37:54.217Z,33.20
2018-06-15T15:40:22.516Z,32.90
2018-06-15T15:42:50.802Z,33.00
2018-06-15T15:45:19.071Z,33.50
2018-06-15T15:47:47.361Z,33.80
2018-06-15T15:50:15.646Z,34.10
2018-06-15T15:52:43.884Z,34.10
2018-06-15T15:55:12.230Z,34.10
2018-06-15T15:57:40.512Z,34.70
2018-06-15T16:00:08.839Z,34.70
2018-06-15T16:02:37.091Z,35.20
2018-06-15T16:05:05.642Z,35.50
2018-06-15T16:07:34.141Z,35.60
2018-06-15T16:10:02.450Z,35.70
2018-06-15T16:12:30.709Z,35.80
2018-06-15T16:14:58.988Z,36.20
2018-06-15T16:17:27.348Z,36.30
2018-06-15T16:19:55.647Z,36.70
2018-06-15T16:22:23.921Z,36.90
2018-06-15T16:24:52.231Z,37.20
2018-06-15T16:27:20.745Z,37.10
2018-06-15T16:29:48.942Z,37.40
2018-06-15T16:32:17.321Z,37.60
2018-06-15T16:34:45.863Z,37.70
2018-06-15T16:37:14.132Z,37.90
2018-06-15T16:42:10.408Z,38.00
2018-06-15T16:44:38.668Z,38.10
2018-06-15T16:47:06.925Z,37.90
2018-06-15T16:49:35.178Z,38.30
2018-06-15T16:52:03.524Z,38.40
2018-06-15T16:54:31.855Z,38.40
2018-06-15T16:57:00.121Z,38.40
2018-06-15T16:59:28.441Z,38.60
2018-06-15T17:01:56.785Z,39.10
2018-06-15T17:04:25.040Z,39.10
2018-06-15T17:06:53.294Z,39.10
2018-06-15T17:09:21.633Z,38.90
2018-06-15T17:11:49.860Z,39.20
2018-06-15T17:14:18.120Z,39.30
2018-06-15T17:16:46.412Z,39.50
2018-06-15T17:19:14.669Z,39.40
2018-06-15T17:21:43.454Z,39.20
2018-06-15T17:26:39.732Z,40.00
2018-06-15T17:29:08.000Z,40.10
2018-06-15T17:31:36.277Z,40.20
2018-06-15T17:34:04.622Z,40.20
2018-06-15T17:36:32.897Z,40.40
2018-06-15T17:39:01.174Z,40.60
2018-06-15T17:41:29.459Z,40.80
2018-06-15T17:43:57.796Z,40.90
2018-06-15T17:46:26.072Z,41.20
2018-06-15T17:48:54.369Z,41.30
2018-06-15T17:51:22.662Z,41.30
2018-06-15T17:53:50.908Z,41.30
2018-06-15T17:56:19.229Z,41.60
2018-06-15T17:58:47.525Z,41.60
2018-06-15T18:01:15.884Z,41.90
2018-06-15T18:03:44.196Z,42.20
2018-06-15T18:06:12.430Z,42.10
2018-06-15T18:08:40.668Z,42.30
2018-06-15T18:11:08.949Z,42.50
2018-06-15T18:13:37.207Z,42.50
2018-06-15T18:16:05.477Z,42.40
2018-06-15T18:18:33.769Z,42.90
2018-06-15T18:21:01.998Z,42.90
2018-06-15T18:23:30.300Z,43.80
2018-06-15T18:25:58.587Z,43.20
2018-06-15T18:28:26.904Z,43.40
2018-06-15T18:30:55.377Z,43.50
2018-06-15T18:33:23.694Z,42.90
2018-06-15T18:38:20.217Z,43.80
2018-06-15T18:40:48.667Z,44.40
2018-06-15T18:43:17.024Z,44.90
2018-06-15T18:45:45.377Z,45.00
2018-06-15T18:48:13.724Z,45.60
2018-06-15T18:50:41.987Z,45.60
2018-06-15T18:53:10.277Z,46.10
2018-06-15T18:55:38.506Z,46.30
2018-06-15T18:58:06.818Z,46.50
2018-06-15T19:00:35.220Z,46.60
2018-06-15T19:03:03.496Z,47.00
2018-06-15T19:05:31.780Z,47.10
2018-06-15T19:08:00.056Z,47.40
2018-06-15T19:10:28.300Z,47.80
2018-06-15T19:12:56.552Z,48.20
2018-06-15T19:15:24.776Z,48.40
2018-06-15T19:17:53.149Z,48.60
2018-06-15T19:20:21.387Z,48.50
2018-06-15T19:22:49.692Z,48.50
2018-06-15T19:25:17.976Z,48.70
2018-06-15T19:27:46.232Z,48.90
2018-06-15T19:30:14.527Z,49.30
2018-06-15T19:32:42.824Z,49.40
2018-06-15T19:35:11.084Z,49.80
2018-06-15T19:37:39.304Z,50.10
2018-06-15T19:40:07.739Z,50.50
2018-06-15T19:42:36.014Z,50.40
2018-06-15T19:45:04.304Z,50.70
2018-06-15T19:47:32.588Z,50.90
2018-06-15T19:50:00.820Z,51.30
2018-06-15T19:52:29.061Z,51.50
2018-06-15T19:54:57.367Z,51.70
2018-06-15T19:57:25.666Z,51.70
2018-06-15T19:59:53.926Z,52.00
2018-06-15T20:02:22.221Z,52.20
2018-06-15T20:04:50.454Z,52.50
2018-06-15T20:07:18.788Z,52.60
2018-06-15T20:09:46.999Z,52.60
2018-06-15T20:12:15.230Z,52.80
2018-06-15T20:17:11.550Z,53.10
2018-06-15T20:19:39.807Z,53.20
2018-06-15T20:22:08.083Z,53.60
2018-06-15T20:24:36.364Z,54.00
2018-06-15T20:27:04.624Z,53.80
2018-06-15T20:29:32.917Z,53.80
2018-06-15T20:32:01.562Z,53.90
2018-06-15T20:34:29.826Z,54.20
2018-06-15T20:36:58.060Z,54.20
2018-06-15T20:39:26.297Z,54.50
2018-06-15T20:41:54.547Z,54.70
2018-06-15T20:44:22.836Z,55.40
2018-06-15T20:46:51.182Z,55.10
2018-06-15T20:49:19.464Z,55.10
2018-06-15T20:51:48.678Z,55.10
2018-06-15T20:54:16.977Z,55.30
2018-06-15T20:59:13.209Z,55.50
2018-06-15T21:01:42.746Z,55.40
2018-06-15T21:04:11.001Z,55.60
2018-06-15T21:06:39.260Z,55.80
2018-06-15T21:09:08.883Z,56.20
2018-06-15T21:11:37.129Z,56.30
2018-06-15T21:14:05.367Z,56.40
2018-06-15T21:16:34.576Z,56.50
2018-06-15T21:19:02.878Z,56.80
2018-06-15T21:21:31.097Z,56.80
2018-06-15T21:23:59.376Z,57.00
2018-06-15T21:26:27.622Z,57.20
2018-06-15T21:28:56.060Z,57.40
2018-06-15T21:31:24.287Z,57.50
2018-06-15T21:33:52.532Z,57.70
2018-06-15T21:36:20.773Z,58.00
2018-06-15T21:38:49.020Z,57.90
2018-06-15T21:41:17.292Z,58.10
2018-06-15T21:43:45.508Z,58.30
2018-06-15T21:46:13.812Z,58.40
2018-06-15T21:48:42.076Z,58.50
2018-06-15T21:51:10.357Z,58.60
2018-06-15T21:53:38.581Z,58.80
2018-06-15T21:56:06.816Z,58.70
2018-06-15T21:58:35.060Z,58.80
2018-06-15T22:01:03.319Z,58.70
2018-06-15T22:03:31.589Z,58.90
2018-06-15T22:05:59.841Z,59.00
2018-06-15T22:08:28.073Z,59.00
2018-06-15T22:10:56.698Z,58.90
2018-06-15T22:13:24.976Z,58.70
2018-06-15T22:15:53.225Z,58.70
2018-06-15T22:18:21.493Z,58.60
2018-06-15T22:20:49.715Z,58.40
2018-06-15T22:23:17.957Z,58.30
2018-06-15T22:25:46.216Z,58.30
2018-06-15T22:28:14.469Z,58.10
2018-06-15T22:30:42.696Z,58.00
2018-06-15T22:33:10.963Z,57.60
2018-06-15T22:35:39.220Z,57.50
2018-06-15T22:38:07.444Z,57.30
2018-06-15T22:40:35.702Z,57.20
2018-06-15T22:43:03.940Z,57.20
2018-06-15T22:45:32.185Z,57.20
2018-06-15T22:48:00.444Z,57.20
2018-06-15T22:50:28.675Z,57.20
2018-06-15T22:52:56.977Z,57.10
2018-06-15T22:55:25.211Z,57.30
2018-06-15T22:57:53.497Z,57.20
2018-06-15T23:00:24.157Z,57.40
2018-06-15T23:02:52.461Z,57.30
2018-06-15T23:05:20.677Z,57.40
2018-06-15T23:07:48.951Z,57.90
2018-06-15T23:10:17.229Z,57.30
2018-06-15T23:12:45.536Z,57.90
2018-06-15T23:15:13.790Z,57.20
2018-06-15T23:17:42.054Z,57.30
2018-06-15T23:20:10.348Z,57.30
2018-06-15T23:22:38.856Z,57.40
2018-06-15T23:25:07.294Z,57.90
2018-06-15T23:27:35.660Z,57.30
2018-06-15T23:30:04.336Z,57.30
2018-06-15T23:32:32.635Z,57.40
2018-06-15T23:35:00.921Z,57.30
2018-06-15T23:37:29.193Z,57.30
2018-06-15T23:39:57.444Z,57.40
2018-06-15T23:42:25.704Z,57.30
2018-06-15T23:44:54.029Z,57.30
2018-06-15T23:47:22.306Z,58.10
2018-06-15T23:49:50.633Z,57.30
2018-06-15T23:52:18.909Z,57.10
2018-06-15T23:54:47.133Z,57.00
2018-06-15T23:57:15.617Z,57.00
2018-06-15T23:59:43.892Z,57.00
